Time;durP1;ratioP1;P1;durP2;ratioP2;P2;SDS_P1;SDS_P2;PMS_P1;PMS_P2;Temp;Humidity;BMP_temperature;BMP_pressure;BME280_temperature;BME280_humidity;BME280_pressure;Samples;Min_cycle;Max_cycle;Signal;HPM_P1;HPM_P2
2023/04/04 00:00:34;;;;;;;1.17;0.30;;;3.60;75.40;;;;;;4973760;28;20054;-83
2023/04/04 00:03:01;;;;;;;0.95;0.20;;;3.70;75.30;;;;;;4939190;29;20058;-83
2023/04/04 00:05:29;;;;;;;0.90;0.20;;;3.60;75.30;;;;;;4937217;28;20051;-83
2023/04/04 00:07:56;;;;;;;0.67;0.20;;;3.60;75.30;;;;;;4958086;28;20066;-83
2023/04/04 00:10:24;;;;;;;1.43;0.20;;;3.60;75.50;;;;;;4942436;28;20411;-83
2023/04/04 00:12:51;;;;;;;0.53;0.20;;;3.60;75.40;;;;;;4939931;28;20509;-82
2023/04/04 00:15:18;;;;;;;0.43;0.10;;;3.50;75.50;;;;;;4958229;28;20133;-83
2023/04/04 00:17:45;;;;;;;0.32;0.17;;;3.50;75.50;;;;;;4942478;28;20067;-83
2023/04/04 00:20:13;;;;;;;0.63;0.32;;;3.50;75.60;;;;;;4958164;28;20459;-83
2023/04/04 00:22:41;;;;;;;0.95;0.28;;;3.50;75.70;;;;;;4922854;29;20043;-83
2023/04/04 00:25:08;;;;;;;0.93;0.20;;;3.40;75.70;;;;;;4961928;28;20085;-83
2023/04/04 00:27:35;;;;;;;0.95;0.40;;;3.40;75.90;;;;;;4938708;28;20070;-77
2023/04/04 00:30:02;;;;;;;1.33;0.30;;;3.40;76.00;;;;;;4954753;28;20114;-77
2023/04/04 00:32:30;;;;;;;0.55;0.28;;;3.30;76.10;;;;;;4927695;29;20514;-77
2023/04/04 00:34:57;;;;;;;0.67;0.20;;;3.30;76.20;;;;;;4924663;28;20109;-77
2023/04/04 00:37:24;;;;;;;0.60;0.20;;;3.30;76.30;;;;;;4945341;28;20105;-77
2023/04/04 00:39:51;;;;;;;0.40;0.10;;;3.30;76.30;;;;;;4969114;28;20043;-77
2023/04/04 00:42:18;;;;;;;1.80;0.40;;;3.30;76.30;;;;;;4926183;28;20130;-77
2023/04/04 00:44:45;;;;;;;0.40;0.20;;;3.20;76.30;;;;;;4941042;29;20047;-76
2023/04/04 00:47:12;;;;;;;2.83;0.30;;;3.10;76.40;;;;;;4969047;28;20071;-76
2023/04/04 00:49:40;;;;;;;2.00;0.43;;;3.10;76.60;;;;;;4938748;29;20047;-77
2023/04/04 00:52:07;;;;;;;0.90;0.30;;;3.10;76.70;;;;;;4950593;28;20039;-76
2023/04/04 00:54:35;;;;;;;0.80;0.30;;;3.10;76.80;;;;;;4910471;28;20121;-77
2023/04/04 00:57:04;;;;;;;0.80;0.30;;;3.00;76.90;;;;;;4954825;28;20039;-77
2023/04/04 00:59:31;;;;;;;0.63;0.20;;;3.00;77.00;;;;;;4952615;28;20035;-76
2023/04/04 01:01:59;;;;;;;0.85;0.47;;;3.00;77.10;;;;;;4973058;28;20047;-77
2023/04/04 01:04:28;;;;;;;1.25;0.35;;;3.00;77.10;;;;;;4941297;28;20592;-77
2023/04/04 01:06:55;;;;;;;0.60;0.20;;;2.90;77.10;;;;;;4944801;29;20138;-77
2023/04/04 01:09:24;;;;;;;0.67;0.20;;;2.90;77.20;;;;;;4935315;29;20102;-77
2023/04/04 01:11:53;;;;;;;0.57;0.20;;;2.90;77.30;;;;;;4910333;29;20035;-77
2023/04/04 01:14:21;;;;;;;0.93;0.30;;;2.90;77.40;;;;;;4940609;28;20074;-77
2023/04/04 01:16:51;;;;;;;1.00;0.20;;;2.80;77.40;;;;;;4959230;28;20106;-77
2023/04/04 01:19:42;;;;;;;2.53;0.70;;;2.80;77.50;;;;;;4932778;29;20047;-77
2023/04/04 01:22:14;;;;;;;;;;;2.80;77.50;;;;;;4944977;28;20051;-77
2023/04/04 01:24:45;;;;;;;1.02;0.30;;;2.70;77.70;;;;;;4967374;28;20449;-77
2023/04/04 01:27:13;;;;;;;0.77;0.20;;;2.70;77.70;;;;;;4951008;29;20407;-76
2023/04/04 01:29:46;;;;;;;0.82;0.20;;;2.70;77.70;;;;;;4945332;28;20053;-77
2023/04/04 01:32:18;;;;;;;0.82;0.25;;;2.70;77.70;;;;;;4959579;28;20094;-77
2023/04/04 01:34:50;;;;;;;1.23;0.63;;;2.70;77.80;;;;;;4948754;28;20043;-76
2023/04/04 01:37:32;;;;;;;0.77;0.30;;;2.70;77.80;;;;;;4960057;28;20057;-76
2023/04/04 01:40:13;;;;;;;0.87;0.23;;;2.70;77.90;;;;;;4959514;28;20054;-77
2023/04/04 01:42:43;;;;;;;1.37;0.30;;;2.60;78.00;;;;;;4954571;28;20078;-76
2023/04/04 01:45:11;;;;;;;0.85;0.30;;;2.60;78.10;;;;;;4943809;28;20050;-76
2023/04/04 01:47:42;;;;;;;1.50;0.43;;;2.60;78.70;;;;;;4960106;28;20422;-77
2023/04/04 01:50:15;;;;;;;0.98;0.30;;;2.60;78.10;;;;;;4950478;28;20046;-77
2023/04/04 01:52:42;;;;;;;0.65;0.32;;;2.60;78.10;;;;;;4932337;28;20039;-76
2023/04/04 01:55:10;;;;;;;0.95;0.30;;;2.60;78.20;;;;;;4964195;28;20043;-76
2023/04/04 01:57:37;;;;;;;1.08;0.30;;;2.60;78.20;;;;;;4963235;28;20067;-76
2023/04/04 02:00:08;;;;;;;1.13;0.47;;;2.60;78.40;;;;;;4921189;28;20043;-76
2023/04/04 02:02:41;;;;;;;1.33;0.50;;;2.50;78.40;;;;;;4937175;28;20039;-76
2023/04/04 02:05:10;;;;;;;0.68;0.28;;;2.50;78.40;;;;;;4952761;28;20042;-76
2023/04/04 02:07:37;;;;;;;1.35;0.30;;;2.50;78.40;;;;;;4923700;28;20069;-76
2023/04/04 02:10:12;;;;;;;0.60;0.20;;;2.50;78.50;;;;;;4959866;28;20066;-76
2023/04/04 02:12:39;;;;;;;0.47;0.20;;;2.50;78.60;;;;;;4971632;28;20075;-76
2023/04/04 02:15:07;;;;;;;1.20;0.30;;;2.50;78.60;;;;;;4959606;28;20381;-76
2023/04/04 02:17:34;;;;;;;0.87;0.30;;;2.40;78.70;;;;;;4932347;29;20407;-76
2023/04/04 02:20:02;;;;;;;1.90;0.30;;;2.40;78.80;;;;;;4957884;28;20124;-76
2023/04/04 02:22:29;;;;;;;1.33;0.35;;;2.40;78.90;;;;;;4935171;28;20055;-77
2023/04/04 02:24:56;;;;;;;0.50;0.20;;;2.40;79.10;;;;;;4930395;28;20102;-76
2023/04/04 02:27:23;;;;;;;1.17;0.30;;;2.40;79.10;;;;;;4950865;29;20415;-76
2023/04/04 02:29:50;;;;;;;1.83;0.30;;;2.40;79.10;;;;;;4953542;28;20082;-76
2023/04/04 02:32:17;;;;;;;0.70;0.20;;;2.40;79.10;;;;;;4947166;28;20052;-76
2023/04/04 02:34:47;;;;;;;0.73;0.20;;;2.30;79.00;;;;;;4946256;29;20043;-77
2023/04/04 02:37:14;;;;;;;1.37;0.40;;;2.40;79.10;;;;;;4930166;28;20051;-77
2023/04/04 02:39:41;;;;;;;1.20;0.30;;;2.40;79.00;;;;;;4926345;29;20047;-76
2023/04/04 02:42:08;;;;;;;1.93;0.33;;;2.40;79.00;;;;;;4942103;28;20051;-76
2023/04/04 02:44:35;;;;;;;0.90;0.20;;;2.30;79.00;;;;;;4942811;28;20121;-77
2023/04/04 02:47:05;;;;;;;0.40;0.20;;;2.30;79.10;;;;;;4940582;28;20138;-76
2023/04/04 02:49:32;;;;;;;0.80;0.30;;;2.30;79.10;;;;;;4966220;28;20498;-76
2023/04/04 02:52:00;;;;;;;0.70;0.30;;;2.30;79.30;;;;;;4944451;28;20046;-76
2023/04/04 02:54:31;;;;;;;1.60;0.30;;;2.30;79.40;;;;;;4964595;28;20057;-76
2023/04/04 02:57:00;;;;;;;1.03;0.10;;;2.20;79.50;;;;;;4945249;29;20055;-76
2023/04/04 02:59:27;;;;;;;0.50;0.10;;;2.20;79.60;;;;;;4934864;28;20078;-76
2023/04/04 03:01:54;;;;;;;1.20;0.67;;;2.20;79.60;;;;;;4946706;28;20102;-76
2023/04/04 03:04:22;;;;;;;0.40;0.20;;;2.20;79.70;;;;;;4942916;28;20113;-76
2023/04/04 03:06:49;;;;;;;0.50;0.20;;;2.20;79.70;;;;;;4947839;29;20157;-77
2023/04/04 03:09:16;;;;;;;0.73;0.30;;;2.20;79.80;;;;;;4921655;29;20055;-77
2023/04/04 03:11:43;;;;;;;0.70;0.20;;;2.20;79.70;;;;;;4911939;29;20035;-76
2023/04/04 03:14:11;;;;;;;0.50;0.20;;;2.10;79.70;;;;;;4951189;28;20130;-76
2023/04/04 03:16:39;;;;;;;1.23;0.37;;;2.10;79.70;;;;;;4966259;28;20047;-76
2023/04/04 03:19:06;;;;;;;0.73;0.30;;;2.10;79.80;;;;;;4950102;28;20043;-76
2023/04/04 03:21:33;;;;;;;0.97;0.30;;;2.10;79.80;;;;;;4958258;28;20073;-76
2023/04/04 03:24:00;;;;;;;0.47;0.20;;;2.10;79.90;;;;;;4950183;29;20074;-75
2023/04/04 03:26:30;;;;;;;0.90;0.20;;;2.00;79.90;;;;;;4938255;28;20047;-76
2023/04/04 03:28:57;;;;;;;0.47;0.20;;;2.00;80.10;;;;;;4937684;28;20106;-76
2023/04/04 03:31:25;;;;;;;0.97;0.30;;;1.90;80.10;;;;;;4925155;28;20105;-76
2023/04/04 03:33:52;;;;;;;0.80;0.40;;;1.90;80.30;;;;;;4952347;29;20138;-76
2023/04/04 03:36:21;;;;;;;1.97;0.30;;;1.90;80.40;;;;;;4935733;28;20134;-76
2023/04/04 03:38:49;;;;;;;1.03;0.33;;;1.90;80.50;;;;;;4950035;29;20138;-77
2023/04/04 03:41:16;;;;;;;1.07;0.30;;;1.80;80.50;;;;;;4932937;28;20051;-77
2023/04/04 03:43:44;;;;;;;0.73;0.20;;;1.80;80.60;;;;;;4929081;28;20051;-76
2023/04/04 03:46:11;;;;;;;1.50;0.40;;;1.80;80.70;;;;;;4958120;28;20448;-77
2023/04/04 03:48:39;;;;;;;1.60;0.27;;;1.80;80.80;;;;;;4955274;28;20381;-76
2023/04/04 03:51:09;;;;;;;0.60;0.30;;;1.70;80.90;;;;;;4946614;28;20035;-76
2023/04/04 03:53:37;;;;;;;0.93;0.30;;;1.70;81.00;;;;;;4934872;28;20396;-76
2023/04/04 03:56:04;;;;;;;1.87;0.20;;;1.70;81.10;;;;;;4911927;28;20066;-76
2023/04/04 03:58:35;;;;;;;1.53;0.20;;;1.60;81.20;;;;;;4939608;29;20457;-76
2023/04/04 04:01:02;;;;;;;0.70;0.30;;;1.60;81.30;;;;;;4931704;29;20059;-76
2023/04/04 04:03:30;;;;;;;2.27;0.33;;;1.60;81.30;;;;;;4942665;28;20039;-76
2023/04/04 04:05:58;;;;;;;0.60;0.30;;;1.60;81.40;;;;;;4943745;28;20170;-76
2023/04/04 04:08:26;;;;;;;0.80;0.37;;;1.60;81.40;;;;;;4949402;28;20046;-77
2023/04/04 04:10:53;;;;;;;0.53;0.30;;;1.60;81.30;;;;;;4944702;28;20053;-77
2023/04/04 04:13:21;;;;;;;0.50;0.20;;;1.70;81.20;;;;;;4971397;28;20038;-77
2023/04/04 04:15:49;;;;;;;0.80;0.40;;;1.70;81.10;;;;;;4946716;29;20138;-76
2023/04/04 04:18:20;;;;;;;0.60;0.23;;;1.70;81.10;;;;;;4936221;29;20138;-76
2023/04/04 04:20:49;;;;;;;1.40;0.30;;;1.70;81.20;;;;;;4949071;28;20046;-77
2023/04/04 04:23:19;;;;;;;1.00;0.37;;;1.60;81.20;;;;;;4970647;28;20047;-77
2023/04/04 04:25:50;;;;;;;1.30;0.30;;;1.60;81.30;;;;;;4930843;28;20523;-76
2023/04/04 04:28:19;;;;;;;0.57;0.30;;;1.60;81.40;;;;;;4954700;28;20141;-77
2023/04/04 04:30:47;;;;;;;1.37;0.40;;;1.60;81.50;;;;;;4941616;28;20051;-76
2023/04/04 04:33:18;;;;;;;0.50;0.20;;;1.60;81.60;;;;;;4913432;28;20488;-76
2023/04/04 04:36:00;;;;;;;2.07;0.47;;;1.60;81.60;;;;;;4935821;28;20055;-76
2023/04/04 04:38:33;;;;;;;1.10;0.47;;;1.60;81.60;;;;;;4927278;28;20482;-77
2023/04/04 04:41:02;;;;;;;0.60;0.17;;;1.60;81.50;;;;;;4929349;29;20463;-76
2023/04/04 04:43:38;;;;;;;0.90;0.20;;;1.60;81.40;;;;;;4954059;28;20050;-77
2023/04/04 04:46:05;;;;;;;1.07;0.30;;;1.60;81.40;;;;;;4932914;29;20078;-76
2023/04/04 04:48:33;;;;;;;0.93;0.30;;;1.60;81.30;;;;;;4920376;28;20133;-77
2023/04/04 04:51:03;;;;;;;0.80;0.20;;;1.60;81.40;;;;;;4943167;28;20117;-78
2023/04/04 04:53:38;;;;;;;0.87;0.23;;;1.60;81.40;;;;;;4938805;28;20146;-79
2023/04/04 04:56:06;;;;;;;1.00;0.20;;;1.60;81.50;;;;;;4937936;29;20051;-79
2023/04/04 04:58:35;;;;;;;0.87;0.40;;;1.50;81.50;;;;;;4925846;28;20035;-76
2023/04/04 05:01:06;;;;;;;1.07;0.43;;;1.50;81.70;;;;;;4930968;28;20043;-77
2023/04/04 05:03:37;;;;;;;0.60;0.20;;;1.50;81.80;;;;;;4932983;29;20043;-77
2023/04/04 05:06:08;;;;;;;0.63;0.30;;;1.50;82.00;;;;;;4936336;29;20048;-76
2023/04/04 05:08:36;;;;;;;1.20;0.30;;;1.40;82.10;;;;;;4934038;28;20042;-78
2023/04/04 05:11:26;;;;;;;1.23;0.30;;;1.40;82.20;;;;;;4962200;28;20129;-78
2023/04/04 05:13:54;;;;;;;1.00;0.30;;;1.40;82.30;;;;;;4934021;28;20067;-79
2023/04/04 05:16:24;;;;;;;1.07;0.30;;;1.30;82.30;;;;;;4940341;28;20403;-77
2023/04/04 05:18:54;;;;;;;1.37;0.30;;;1.30;82.40;;;;;;4942192;29;20043;-79
2023/04/04 05:21:22;;;;;;;0.87;0.20;;;1.30;82.50;;;;;;4952476;28;20133;-79
2023/04/04 05:23:51;;;;;;;0.73;0.23;;;1.30;82.60;;;;;;4956973;28;20047;-78
2023/04/04 05:26:21;;;;;;;0.80;0.30;;;1.30;82.60;;;;;;4944147;28;20051;-79
2023/04/04 05:28:50;;;;;;;0.70;0.30;;;1.40;82.50;;;;;;4934997;29;20102;-78
2023/04/04 05:31:21;;;;;;;1.57;0.30;;;1.40;82.50;;;;;;4914099;29;20054;-79
2023/04/04 05:33:52;;;;;;;1.00;0.30;;;1.40;82.40;;;;;;4931699;28;20043;-79
2023/04/04 05:36:30;;;;;;;0.37;0.20;;;1.40;82.30;;;;;;4932334;28;20050;-85
2023/04/04 05:39:06;;;;;;;1.30;0.30;;;1.40;82.30;;;;;;4937238;28;20165;-85
2023/04/04 05:41:38;;;;;;;1.30;0.30;;;1.40;82.40;;;;;;4953065;28;20075;-85
2023/04/04 05:44:15;;;;;;;0.70;0.20;;;1.40;82.30;;;;;;4945448;28;20047;-85
2023/04/04 05:46:45;;;;;;;0.87;0.17;;;1.40;82.40;;;;;;4929927;28;20043;-85
2023/04/04 05:49:12;;;;;;;1.00;0.20;;;1.40;82.50;;;;;;4935432;28;20053;-85
2023/04/04 05:51:47;;;;;;;0.97;0.30;;;1.40;82.60;;;;;;4914749;29;20051;-85
2023/04/04 05:54:15;;;;;;;0.97;0.40;;;1.40;82.70;;;;;;4911692;28;20047;-79
2023/04/04 05:56:43;;;;;;;1.03;0.47;;;1.50;82.80;;;;;;4921583;28;20106;-79
2023/04/04 05:59:33;;;;;;;0.60;0.20;;;1.50;82.80;;;;;;4962820;28;20051;-77
2023/04/04 06:02:03;;;;;;;0.90;0.30;;;1.50;82.80;;;;;;4954682;28;20054;-77
2023/04/04 06:04:31;;;;;;;0.73;0.30;;;1.60;82.70;;;;;;4930636;28;20054;-77
2023/04/04 06:07:01;;;;;;;0.83;0.30;;;1.60;82.60;;;;;;4970157;28;20074;-77
2023/04/04 06:09:28;;;;;;;0.77;0.30;;;1.70;82.60;;;;;;4930094;29;20040;-78
2023/04/04 06:11:55;;;;;;;0.97;0.30;;;1.80;82.40;;;;;;4948190;29;20047;-78
2023/04/04 06:14:25;;;;;;;2.30;0.30;;;1.90;82.30;;;;;;4934855;28;20095;-76
2023/04/04 06:16:52;;;;;;;0.37;0.20;;;2.00;82.10;;;;;;4968112;28;20036;-78
2023/04/04 06:19:19;;;;;;;1.23;0.30;;;2.20;81.90;;;;;;4928477;28;20492;-77
2023/04/04 06:21:47;;;;;;;0.87;0.20;;;2.30;81.60;;;;;;4938002;29;20044;-79
2023/04/04 06:24:15;;;;;;;1.13;0.50;;;2.40;81.40;;;;;;4940818;28;20054;-80
2023/04/04 06:26:42;;;;;;;1.17;0.30;;;2.50;81.20;;;;;;4945970;28;20046;-79
2023/04/04 06:29:11;;;;;;;1.40;0.40;;;2.60;81.00;;;;;;4934671;29;20057;-77
2023/04/04 06:31:40;;;;;;;0.70;0.20;;;2.70;80.90;;;;;;4927985;28;20050;-77
2023/04/04 06:34:12;;;;;;;1.02;0.20;;;2.80;80.80;;;;;;4930814;29;20043;-77
2023/04/04 06:36:52;;;;;;;0.77;0.27;;;2.90;80.80;;;;;;4968118;28;20049;-76
2023/04/04 06:39:22;;;;;;;0.63;0.20;;;2.90;80.70;;;;;;4933002;29;20522;-77
2023/04/04 06:41:51;;;;;;;0.70;0.40;;;3.00;80.60;;;;;;4928001;28;20166;-77
2023/04/04 06:44:24;;;;;;;0.70;0.30;;;3.10;80.50;;;;;;4964897;28;20065;-76
2023/04/04 06:46:51;;;;;;;0.87;0.30;;;3.10;80.40;;;;;;4930015;28;20043;-76
2023/04/04 06:49:18;;;;;;;0.80;0.20;;;3.20;80.40;;;;;;4955061;28;20497;-77
2023/04/04 06:52:05;;;;;;;1.13;0.47;;;3.30;80.30;;;;;;4931882;29;20061;-75
2023/04/04 06:54:33;;;;;;;1.27;0.30;;;3.50;80.10;;;;;;4951336;28;20062;-78
2023/04/04 06:57:00;;;;;;;1.53;0.50;;;3.60;79.90;;;;;;4955920;28;20054;-80
2023/04/04 06:59:30;;;;;;;1.83;0.50;;;3.70;79.60;;;;;;4974329;28;20051;-79
2023/04/04 07:01:57;;;;;;;1.20;0.40;;;3.80;79.40;;;;;;4933583;28;20047;-78
2023/04/04 07:04:25;;;;;;;0.90;0.27;;;3.90;79.20;;;;;;4953450;29;20063;-78
2023/04/04 07:06:52;;;;;;;1.10;0.30;;;4.00;79.20;;;;;;4932329;28;20392;-79
2023/04/04 07:09:19;;;;;;;0.73;0.30;;;4.10;79.20;;;;;;4953117;29;20066;-79
2023/04/04 07:11:55;;;;;;;0.60;0.30;;;4.10;79.00;;;;;;4935096;29;20083;-78
2023/04/04 07:14:24;;;;;;;1.03;0.30;;;4.20;78.90;;;;;;4935871;28;20495;-78
2023/04/04 07:16:52;;;;;;;2.10;0.40;;;4.20;79.40;;;;;;4945130;28;20057;-78
2023/04/04 07:19:19;;;;;;;1.00;0.40;;;4.30;78.70;;;;;;4915581;28;20043;-78
2023/04/04 07:21:46;;;;;;;0.77;0.30;;;4.40;78.60;;;;;;4926170;29;20193;-78
2023/04/04 07:24:13;;;;;;;1.90;0.47;;;4.50;78.40;;;;;;4958502;28;20455;-79
2023/04/04 07:26:40;;;;;;;0.82;0.40;;;4.50;78.30;;;;;;4942603;28;20150;-78
2023/04/04 07:29:07;;;;;;;1.95;0.50;;;4.60;78.20;;;;;;4923922;29;20046;-78
2023/04/04 07:31:34;;;;;;;0.63;0.30;;;4.80;78.10;;;;;;4936974;28;20050;-80
2023/04/04 07:34:02;;;;;;;1.08;0.57;;;4.80;77.90;;;;;;4946687;28;20502;-78
2023/04/04 07:36:29;;;;;;;1.48;0.50;;;4.90;77.80;;;;;;4960592;28;20078;-79
2023/04/04 07:38:56;;;;;;;1.23;0.40;;;5.00;77.70;;;;;;4941930;28;20047;-80
2023/04/04 07:41:25;;;;;;;1.85;0.77;;;5.10;77.60;;;;;;4942790;28;20047;-79
2023/04/04 07:43:52;;;;;;;1.10;0.30;;;5.10;77.40;;;;;;4942126;28;20138;-78
2023/04/04 07:46:19;;;;;;;1.67;0.40;;;5.20;77.40;;;;;;4947815;29;20047;-78
2023/04/04 07:48:46;;;;;;;1.05;0.20;;;5.30;77.40;;;;;;4927859;28;20155;-77
2023/04/04 07:51:14;;;;;;;2.00;0.30;;;5.40;77.20;;;;;;4957810;28;20093;-79
2023/04/04 07:53:41;;;;;;;0.80;0.30;;;5.50;77.10;;;;;;4932550;28;20068;-79
2023/04/04 07:56:08;;;;;;;0.80;0.40;;;5.60;76.90;;;;;;4960317;28;20079;-81
2023/04/04 07:58:35;;;;;;;1.60;0.40;;;5.70;76.80;;;;;;4939496;28;20471;-80
2023/04/04 08:01:03;;;;;;;1.30;0.40;;;5.80;76.70;;;;;;4946812;28;20055;-80
2023/04/04 08:03:30;;;;;;;1.10;0.40;;;5.80;76.40;;;;;;4953034;28;20129;-79
2023/04/04 08:05:57;;;;;;;0.95;0.30;;;5.90;76.40;;;;;;4932070;28;20047;-81
2023/04/04 08:08:24;;;;;;;1.75;0.63;;;5.90;76.30;;;;;;4964628;28;20040;-81
2023/04/04 08:10:51;;;;;;;1.33;0.40;;;6.00;76.20;;;;;;4954567;28;20557;-81
2023/04/04 08:13:19;;;;;;;1.10;0.30;;;6.10;76.10;;;;;;4938062;29;20050;-79
2023/04/04 08:15:46;;;;;;;1.48;0.40;;;6.10;75.90;;;;;;4933366;28;20046;-79
2023/04/04 08:18:13;;;;;;;0.90;0.40;;;6.20;76.40;;;;;;4928352;28;20039;-79
2023/04/04 08:20:41;;;;;;;1.70;0.60;;;6.20;75.40;;;;;;4948836;29;20088;-79
2023/04/04 08:23:08;;;;;;;1.25;0.40;;;6.30;75.50;;;;;;4920283;28;20038;-78
2023/04/04 08:25:35;;;;;;;2.20;0.60;;;6.30;76.00;;;;;;4945897;28;20053;-79
2023/04/04 08:28:05;;;;;;;0.90;0.30;;;6.40;75.30;;;;;;4944173;28;20488;-79
2023/04/04 08:30:32;;;;;;;1.00;0.30;;;6.40;75.20;;;;;;4935332;29;20407;-78
2023/04/04 08:32:59;;;;;;;0.95;0.30;;;6.50;75.20;;;;;;4919185;28;20043;-81
2023/04/04 08:35:30;;;;;;;0.95;0.38;;;6.50;74.80;;;;;;4928302;28;20505;-79
2023/04/04 08:37:58;;;;;;;1.65;0.38;;;6.50;74.70;;;;;;4941463;28;20057;-78
2023/04/04 08:40:25;;;;;;;0.70;0.28;;;6.60;74.70;;;;;;4941499;28;20043;-79
2023/04/04 08:42:53;;;;;;;1.60;0.35;;;6.60;74.60;;;;;;4948385;28;20066;-78
2023/04/04 08:45:21;;;;;;;1.00;0.40;;;6.70;74.50;;;;;;4923040;28;20154;-79
2023/04/04 08:47:50;;;;;;;1.65;0.40;;;6.70;74.40;;;;;;4922119;29;20666;-78
2023/04/04 08:50:19;;;;;;;1.00;0.40;;;6.80;74.30;;;;;;4946274;28;20054;-79
2023/04/04 08:52:46;;;;;;;1.40;0.40;;;6.80;74.20;;;;;;4942332;28;20106;-78
2023/04/04 08:55:14;;;;;;;1.83;0.43;;;6.80;74.10;;;;;;4973155;28;20122;-78
2023/04/04 08:57:42;;;;;;;1.10;0.50;;;6.80;74.00;;;;;;4935846;28;20423;-78
2023/04/04 09:00:09;;;;;;;2.78;0.50;;;6.90;74.00;;;;;;4938363;29;20067;-78
2023/04/04 09:02:51;;;;;;;1.00;0.50;;;6.90;73.90;;;;;;4944763;29;20043;-78
2023/04/04 09:05:19;;;;;;;0.95;0.40;;;7.00;73.70;;;;;;4971201;28;20039;-79
2023/04/04 09:07:46;;;;;;;1.05;0.40;;;7.10;73.70;;;;;;4936619;29;20051;-79
2023/04/04 09:10:13;;;;;;;1.67;0.40;;;7.10;73.50;;;;;;4949612;28;20043;-79
2023/04/04 09:12:46;;;;;;;0.90;0.35;;;7.20;73.40;;;;;;4937609;28;20043;-79
2023/04/04 09:15:14;;;;;;;1.25;0.40;;;7.20;73.10;;;;;;4958483;28;20035;-79
2023/04/04 09:17:42;;;;;;;2.40;0.50;;;7.20;72.90;;;;;;4932893;28;20106;-79
2023/04/04 09:20:35;;;;;;;0.60;0.20;;;7.20;72.90;;;;;;4956719;28;20049;-79
2023/04/04 09:23:14;;;;;;;0.75;0.30;;;7.30;72.70;;;;;;4943657;28;20039;-79
2023/04/04 09:25:54;;;;;;;0.93;0.43;;;7.30;72.60;;;;;;4946766;28;20106;-79
2023/04/04 09:28:31;;;;;;;0.98;0.40;;;7.30;72.50;;;;;;4944651;28;20105;-79
2023/04/04 09:31:01;;;;;;;0.75;0.30;;;7.30;72.50;;;;;;4930763;29;20050;-79
2023/04/04 09:33:30;;;;;;;1.15;0.30;;;7.40;72.40;;;;;;4950482;28;20146;-79
2023/04/04 09:36:10;;;;;;;2.70;0.50;;;7.40;72.30;;;;;;4930701;28;20055;-78
2023/04/04 09:38:42;;;;;;;2.15;0.50;;;7.50;72.10;;;;;;4960555;28;20050;-78
2023/04/04 09:41:12;;;;;;;1.60;0.40;;;7.50;71.90;;;;;;4955100;28;20487;-78
2023/04/04 09:43:39;;;;;;;1.08;0.30;;;7.60;71.80;;;;;;4941775;28;20427;-78
2023/04/04 09:46:06;;;;;;;2.10;0.50;;;7.60;71.60;;;;;;4975828;28;20038;-83
2023/04/04 09:48:35;;;;;;;0.75;0.40;;;7.70;71.40;;;;;;4948314;28;20038;-76
2023/04/04 09:51:10;;;;;;;2.40;0.70;;;7.80;71.20;;;;;;4977389;28;20054;-77
2023/04/04 09:53:46;;;;;;;1.30;0.45;;;7.90;70.80;;;;;;4951988;28;20126;-76
2023/04/04 09:56:13;;;;;;;1.48;0.50;;;7.90;71.30;;;;;;4944084;28;20137;-79
2023/04/04 09:58:45;;;;;;;1.83;0.40;;;7.90;70.60;;;;;;4944483;28;20054;-79
2023/04/04 10:01:28;;;;;;;2.28;0.60;;;8.00;70.40;;;;;;4958731;28;20049;-83
2023/04/04 10:03:59;;;;;;;1.55;0.52;;;8.00;70.40;;;;;;4928385;28;20484;-83
2023/04/04 10:06:26;;;;;;;1.52;0.50;;;8.00;70.20;;;;;;4945798;29;20047;-80
2023/04/04 10:08:57;;;;;;;1.85;0.50;;;8.00;70.10;;;;;;4944349;28;20126;-82
2023/04/04 10:11:30;;;;;;;1.92;0.40;;;8.00;70.10;;;;;;4937371;29;20090;-85
2023/04/04 10:13:59;;;;;;;2.80;0.57;;;8.10;69.90;;;;;;4957407;28;20495;-84
2023/04/04 10:16:33;;;;;;;2.22;0.47;;;8.30;69.60;;;;;;4937215;28;20045;-83
2023/04/04 10:19:02;;;;;;;1.02;0.40;;;8.50;68.70;;;;;;4944086;28;20057;-82
2023/04/04 10:21:30;;;;;;;1.67;0.68;;;8.60;68.40;;;;;;4960138;28;20046;-84
2023/04/04 10:23:59;;;;;;;1.42;0.50;;;8.70;68.30;;;;;;4960566;28;20043;-84
2023/04/04 10:26:26;;;;;;;1.23;0.43;;;9.00;67.50;;;;;;4960618;28;20047;-86
2023/04/04 10:28:55;;;;;;;1.35;0.45;;;9.40;66.80;;;;;;4950700;29;20134;-83
2023/04/04 10:31:27;;;;;;;1.98;0.60;;;9.70;65.90;;;;;;4941119;28;20039;-89
2023/04/04 10:34:13;;;;;;;2.97;1.52;;;9.80;65.20;;;;;;4930237;29;20054;-81
2023/04/04 10:36:51;;;;;;;1.95;0.57;;;9.90;64.30;;;;;;4945081;28;20082;-80
2023/04/04 10:39:54;;;;;;;2.17;0.95;;;9.70;64.70;;;;;;4942805;28;20042;-82
2023/04/04 10:42:22;;;;;;;;;;;9.60;64.40;;;;;;4912550;28;20044;-84
2023/04/04 10:44:50;;;;;;;1.15;0.43;;;9.60;65.30;;;;;;4952788;28;19923;-86
2023/04/04 10:47:21;;;;;;;1.23;0.40;;;9.60;65.50;;;;;;4947572;28;20049;-82
2023/04/04 10:49:50;;;;;;;2.38;0.40;;;9.50;65.70;;;;;;4931506;29;20445;-91
2023/04/04 10:52:21;;;;;;;1.40;0.60;;;9.50;66.10;;;;;;4938790;29;20130;-87
2023/04/04 10:54:54;;;;;;;1.77;0.45;;;9.70;65.70;;;;;;4953976;28;20101;-84
2023/04/04 10:57:22;;;;;;;1.70;0.65;;;10.00;65.10;;;;;;4959925;28;20050;-83
2023/04/04 11:00:07;;;;;;;1.33;0.50;;;9.90;64.60;;;;;;4927372;28;20073;-80
2023/04/04 11:02:44;;;;;;;1.38;0.45;;;10.00;64.60;;;;;;4944349;28;20050;-80
2023/04/04 11:05:17;;;;;;;1.95;0.77;;;10.50;64.00;;;;;;4966224;28;20039;-80
2023/04/04 11:07:45;;;;;;;1.48;0.50;;;10.80;63.00;;;;;;4947508;28;20074;-84
2023/04/04 11:10:35;;;;;;;1.20;0.77;;;10.70;62.70;;;;;;4960867;28;20046;-80
2023/04/04 11:13:10;;;;;;;2.45;0.70;;;10.20;63.20;;;;;;4926712;28;20526;-78
2023/04/04 11:15:56;;;;;;;3.65;1.15;;;9.70;64.10;;;;;;4953713;28;20055;-77
2023/04/04 11:18:42;;;;;;;2.67;0.70;;;9.30;64.90;;;;;;4941953;28;20049;-77
2023/04/04 11:21:13;;;;;;;3.17;0.65;;;9.00;65.60;;;;;;4945380;29;20054;-77
2023/04/04 11:23:59;;;;;;;1.45;0.70;;;8.90;66.40;;;;;;4955266;29;20488;-78
2023/04/04 11:26:26;;;;;;;2.20;0.88;;;8.80;66.60;;;;;;4955671;28;20046;-78
2023/04/04 11:28:58;;;;;;;1.40;0.50;;;8.80;66.70;;;;;;4958429;28;20074;-76
2023/04/04 11:31:52;;;;;;;2.00;0.60;;;8.90;66.60;;;;;;4928185;28;20047;-78
2023/04/04 11:34:39;;;;;;;2.30;0.50;;;8.90;66.60;;;;;;4948837;28;20061;-78
2023/04/04 11:37:18;;;;;;;1.60;0.50;;;8.90;66.60;;;;;;4953040;28;20098;-80
2023/04/04 11:39:55;;;;;;;1.08;0.45;;;8.90;66.70;;;;;;4946736;28;20090;-80
2023/04/04 11:42:22;;;;;;;1.70;0.50;;;8.90;66.70;;;;;;4942474;29;20074;-80
2023/04/04 11:44:58;;;;;;;1.20;0.47;;;8.80;66.80;;;;;;4954494;29;20126;-80
2023/04/04 11:47:25;;;;;;;1.77;0.52;;;8.80;66.80;;;;;;4962961;28;20400;-79
2023/04/04 11:49:55;;;;;;;1.92;0.63;;;8.80;66.80;;;;;;4947287;29;20039;-81
2023/04/04 11:52:25;;;;;;;2.38;0.60;;;8.90;66.70;;;;;;4957592;28;20042;-80
2023/04/04 11:54:52;;;;;;;1.67;0.50;;;8.90;66.40;;;;;;4941913;28;20054;-80
2023/04/04 11:57:20;;;;;;;4.43;0.80;;;8.90;66.40;;;;;;4939176;28;20510;-76
2023/04/04 11:59:51;;;;;;;1.48;0.50;;;9.00;66.20;;;;;;4948037;28;20050;-79
2023/04/04 12:02:26;;;;;;;2.25;0.80;;;9.00;66.30;;;;;;4910736;28;20054;-78
2023/04/04 12:04:56;;;;;;;3.42;1.00;;;9.10;65.60;;;;;;4963979;28;20054;-77
2023/04/04 12:07:23;;;;;;;1.30;0.45;;;9.20;65.30;;;;;;4937832;28;20042;-78
2023/04/04 12:09:51;;;;;;;1.48;0.50;;;9.30;65.40;;;;;;4949696;29;20077;-77
2023/04/04 12:12:18;;;;;;;2.25;0.70;;;9.30;65.50;;;;;;4936517;28;20039;-77
2023/04/04 12:14:45;;;;;;;2.83;0.60;;;9.30;65.50;;;;;;4925061;28;20086;-77
2023/04/04 12:17:18;;;;;;;3.65;0.68;;;9.30;65.50;;;;;;4947177;28;20062;-79
2023/04/04 12:19:45;;;;;;;2.42;0.60;;;9.20;65.40;;;;;;4965947;28;20038;-79
2023/04/04 12:22:12;;;;;;;1.15;0.40;;;9.20;65.50;;;;;;4945530;29;20043;-78
2023/04/04 12:24:40;;;;;;;1.88;0.40;;;9.10;65.70;;;;;;4951900;28;20102;-77
2023/04/04 12:27:07;;;;;;;1.77;0.80;;;9.10;65.80;;;;;;4935305;29;20135;-77
2023/04/04 12:29:37;;;;;;;2.25;0.50;;;9.10;65.60;;;;;;4947190;29;20440;-77
2023/04/04 12:32:08;;;;;;;;;;;9.10;65.50;;;;;;4958449;28;20046;-77
2023/04/04 12:34:42;;;;;;;1.98;0.80;;;9.10;65.60;;;;;;4948635;28;19929;-77
2023/04/04 12:37:17;;;;;;;1.98;0.52;;;9.20;64.80;;;;;;4941250;28;20058;-77
2023/04/04 12:39:49;;;;;;;1.63;0.50;;;9.30;64.70;;;;;;4960668;28;20492;-77
2023/04/04 12:42:24;;;;;;;1.20;0.40;;;9.40;64.50;;;;;;4951411;29;20055;-77
2023/04/04 12:44:53;;;;;;;1.35;0.30;;;9.40;64.50;;;;;;4950236;28;20047;-80
2023/04/04 12:47:23;;;;;;;1.50;0.40;;;9.50;64.40;;;;;;4953235;28;20082;-77
2023/04/04 12:49:55;;;;;;;3.08;0.50;;;9.50;64.50;;;;;;4933878;28;20141;-77
2023/04/04 12:52:32;;;;;;;2.13;0.57;;;9.50;64.20;;;;;;4957029;28;20046;-77
2023/04/04 12:55:08;;;;;;;1.35;0.35;;;9.60;64.20;;;;;;4958183;28;20061;-81
2023/04/04 12:57:38;;;;;;;1.52;0.38;;;9.60;64.20;;;;;;4963146;28;20085;-78
2023/04/04 13:00:07;;;;;;;1.33;0.43;;;9.70;64.20;;;;;;4937180;28;20069;-79
2023/04/04 13:02:53;;;;;;;1.95;0.60;;;9.80;64.10;;;;;;4962049;28;20126;-80
2023/04/04 13:05:21;;;;;;;0.93;0.38;;;9.90;63.80;;;;;;4936473;28;20089;-77
2023/04/04 13:07:49;;;;;;;0.73;0.30;;;9.90;63.70;;;;;;4953231;29;20484;-80
2023/04/04 13:10:17;;;;;;;1.20;0.40;;;10.10;63.60;;;;;;4949261;28;20125;-79
2023/04/04 13:12:58;;;;;;;1.30;0.43;;;10.10;63.40;;;;;;4942575;28;20515;-79